Terminal Aerodrome Forecast
Issued by NWS

Home | Current Version | Previous Version | Text Only | Print | Product List | Glossary On
Versions: 1 2 3 4 5 6 7 8 9 10 11 12 13 14 15 16 17 18 19
000
FTUS43 KGRB 191736
TAFATW
TAF
KATW 191736Z 1918/2018 12006KT P6SM BKN022
     FM192000 12005KT P6SM SCT022
      TEMPO 1920/1922 BKN022
     FM201000 14005KT 4SM -SHRA BR BKN040
     FM201200 14008KT P6SM BKN045
     FM201400 15012G19KT P6SM BKN070=

USA.gov is the U.S. government's official web portal to all federal, state and local government web resources and services.